Time;durP1;ratioP1;P1;durP2;ratioP2;P2;SDS_P1;SDS_P2;PMS_P1;PMS_P2;Temp;Humidity;BMP_temperature;BMP_pressure;BME280_temperature;BME280_humidity;BME280_pressure;Samples;Min_cycle;Max_cycle;Signal;HPM_P1;HPM_P2
2022/10/03 00:01:02;;;;;;;0.10;0.10;;;;;;;;;;5037373;28;20291;-75
2022/10/03 00:03:32;;;;;;;0.10;0.10;;;;;;;;;;5051141;28;20383;-76
2022/10/03 00:06:09;;;;;;;0.10;0.10;;;;;;;;;;5039129;28;20337;-75
2022/10/03 00:08:43;;;;;;;0.10;0.10;;;;;;;;;;5049891;28;20204;-76
2022/10/03 00:11:15;;;;;;;0.10;0.10;;;;;;;;;;5040497;28;20525;-77
2022/10/03 00:13:43;;;;;;;0.10;0.10;;;;;;;;;;5048534;28;20236;-76
2022/10/03 00:16:13;;;;;;;0.10;0.10;;;;;;;;;;5040366;28;20571;-76
2022/10/03 00:18:52;;;;;;;0.10;0.10;;;;;;;;;;5049232;28;20295;-76
2022/10/03 00:21:23;;;;;;;0.10;0.10;;;;;;;;;;5041379;28;20246;-76
2022/10/03 00:23:56;;;;;;;0.10;0.10;;;;;;;;;;5047646;28;20392;-75
2022/10/03 00:26:29;;;;;;;0.10;0.10;;;;;;;;;;5041920;28;20446;-76
2022/10/03 00:29:16;;;;;;;0.10;0.10;;;;;;;;;;5046926;28;20265;-75
2022/10/03 00:31:46;;;;;;;0.10;0.10;;;;;;;;;;5042572;28;20245;-75
2022/10/03 00:34:21;;;;;;;0.10;0.10;;;;;;;;;;5044397;28;20232;-76
2022/10/03 00:36:50;;;;;;;0.10;0.10;;;;;;;;;;5045120;28;20298;-76
2022/10/03 00:39:32;;;;;;;0.10;0.10;;;;;;;;;;5043806;28;20215;-76
2022/10/03 00:42:16;;;;;;;0.10;0.10;;;;;;;;;;5046512;28;20273;-76
2022/10/03 00:45:10;;;;;;;0.10;0.10;;;;;;;;;;5042279;28;20191;-76
2022/10/03 00:47:53;;;;;;;0.10;0.10;;;;;;;;;;5030650;28;20234;-74
2022/10/03 00:50:27;;;;;;;0.10;0.10;;;;;;;;;;5033797;28;20195;-75
2022/10/03 00:53:08;;;;;;;0.10;0.10;;;;;;;;;;5054165;28;20213;-76
2022/10/03 00:55:43;;;;;;;0.10;0.10;;;;;;;;;;5035581;28;20235;-75
2022/10/03 00:58:16;;;;;;;0.10;0.10;;;;;;;;;;5052325;28;20392;-76
2022/10/03 01:00:49;;;;;;;0.10;0.10;;;;;;;;;;5036161;28;20308;-75
2022/10/03 01:03:25;;;;;;;0.10;0.10;;;;;;;;;;5051684;28;20542;-76
2022/10/03 01:06:01;;;;;;;0.10;0.10;;;;;;;;;;5037620;28;20454;-75
2022/10/03 01:08:48;;;;;;;0.10;0.10;;;;;;;;;;5053268;28;20244;-76
2022/10/03 01:11:23;;;;;;;0.10;0.10;;;;;;;;;;5042423;28;20294;-76
2022/10/03 01:13:53;;;;;;;0.10;0.10;;;;;;;;;;5050783;28;20248;-75
2022/10/03 01:16:26;;;;;;;0.10;0.10;;;;;;;;;;5045206;28;20247;-75
2022/10/03 01:19:00;;;;;;;0.10;0.10;;;;;;;;;;5050733;28;20287;-75
2022/10/03 01:21:32;;;;;;;0.10;0.10;;;;;;;;;;5046064;28;20292;-75
2022/10/03 01:24:06;;;;;;;0.10;0.10;;;;;;;;;;5049612;28;20232;-75
2022/10/03 01:26:46;;;;;;;0.10;0.10;;;;;;;;;;5046966;28;20570;-76
2022/10/03 01:32:02;;;;;;;0.10;0.10;;;;;;;;;;5050048;28;20247;-75
2022/10/03 01:34:34;;;;;;;0.10;0.10;;;;;;;;;;5045475;28;20226;-75
2022/10/03 01:37:07;;;;;;;2.40;2.30;;;;;;;;;;5049904;28;20300;-76
2022/10/03 01:39:37;;;;;;;0.10;0.10;;;;;;;;;;5045097;28;20213;-76
2022/10/03 01:42:06;;;;;;;0.10;0.10;;;;;;;;;;5050408;28;20241;-75
2022/10/03 01:44:40;;;;;;;0.10;0.10;;;;;;;;;;5045321;28;20241;-75
2022/10/03 01:47:14;;;;;;;0.10;0.10;;;;;;;;;;5050304;28;20276;-77
2022/10/03 01:49:45;;;;;;;0.10;0.10;;;;;;;;;;5045316;28;20200;-76
2022/10/03 01:52:18;;;;;;;0.10;0.10;;;;;;;;;;5050478;28;20264;-77
2022/10/03 01:54:50;;;;;;;0.10;0.10;;;;;;;;;;5044860;28;20256;-77
2022/10/03 01:57:20;;;;;;;0.10;0.10;;;;;;;;;;5050331;28;20575;-76
2022/10/03 01:59:54;;;;;;;0.10;0.10;;;;;;;;;;5044862;28;20299;-76
2022/10/03 02:02:23;;;;;;;0.10;0.10;;;;;;;;;;5050000;28;20466;-76
2022/10/03 02:04:52;;;;;;;0.10;0.10;;;;;;;;;;5044916;28;20251;-76
2022/10/03 02:07:23;;;;;;;0.10;0.10;;;;;;;;;;5049881;28;20501;-76
2022/10/03 02:09:55;;;;;;;0.10;0.10;;;;;;;;;;5044625;28;20216;-76
2022/10/03 02:12:25;;;;;;;0.10;0.10;;;;;;;;;;5049882;28;20240;-76
2022/10/03 02:14:54;;;;;;;0.10;0.10;;;;;;;;;;5044131;28;20229;-76
2022/10/03 02:17:22;;;;;;;0.10;0.10;;;;;;;;;;5049825;28;20243;-75
2022/10/03 02:19:51;;;;;;;0.10;0.10;;;;;;;;;;5043196;28;20232;-76
2022/10/03 02:22:29;;;;;;;0.10;0.10;;;;;;;;;;5049669;28;20551;-76
2022/10/03 02:25:02;;;;;;;0.10;0.10;;;;;;;;;;5044396;28;20191;-76
2022/10/03 02:27:37;;;;;;;0.10;0.10;;;;;;;;;;5049653;28;20245;-76
2022/10/03 02:30:09;;;;;;;0.10;0.10;;;;;;;;;;5044444;28;20193;-76
2022/10/03 02:32:50;;;;;;;0.10;0.10;;;;;;;;;;5032942;28;20214;-74
2022/10/03 02:35:34;;;;;;;0.10;0.10;;;;;;;;;;5035277;28;20217;-75
2022/10/03 02:38:08;;;;;;;0.10;0.10;;;;;;;;;;5055937;28;20219;-75
2022/10/03 02:40:47;;;;;;;0.10;0.10;;;;;;;;;;5037597;28;20240;-75
2022/10/03 02:43:30;;;;;;;0.10;0.10;;;;;;;;;;5054096;28;20199;-75
2022/10/03 02:46:13;;;;;;;0.10;0.10;;;;;;;;;;5040418;28;20512;-76
2022/10/03 02:48:58;;;;;;;0.10;0.10;;;;;;;;;;5050686;28;20201;-75
2022/10/03 02:51:35;;;;;;;0.10;0.10;;;;;;;;;;5043696;28;20245;-76
2022/10/03 02:54:16;;;;;;;0.10;0.10;;;;;;;;;;5047575;28;20205;-76
2022/10/03 02:56:56;;;;;;;0.10;0.10;;;;;;;;;;5019798;28;20245;-77
2022/10/03 02:59:32;;;;;;;0.10;0.10;;;;;;;;;;5044569;28;20224;-75
2022/10/03 03:02:22;;;;;;;0.10;0.10;;;;;;;;;;5048223;28;20247;-75
2022/10/03 03:05:02;;;;;;;0.10;0.10;;;;;;;;;;5043937;28;20358;-76
2022/10/03 03:07:52;;;;;;;0.10;0.10;;;;;;;;;;5048941;28;20300;-75
2022/10/03 03:10:29;;;;;;;0.10;0.10;;;;;;;;;;5034930;28;20199;-76
2022/10/03 03:13:07;;;;;;;0.10;0.10;;;;;;;;;;5055533;28;20213;-76
2022/10/03 03:15:53;;;;;;;0.10;0.10;;;;;;;;;;5037006;28;20243;-76
2022/10/03 03:18:26;;;;;;;0.10;0.10;;;;;;;;;;5052713;28;20202;-75
2022/10/03 03:21:05;;;;;;;0.10;0.10;;;;;;;;;;5039161;28;20247;-76
2022/10/03 03:23:49;;;;;;;0.10;0.10;;;;;;;;;;5050970;28;20299;-74
2022/10/03 03:26:24;;;;;;;0.10;0.10;;;;;;;;;;5041788;28;20246;-75
2022/10/03 03:28:54;;;;;;;0.10;0.10;;;;;;;;;;5048530;28;20239;-75
2022/10/03 03:31:25;;;;;;;0.10;0.10;;;;;;;;;;5042483;28;20261;-76
2022/10/03 03:33:58;;;;;;;0.10;0.10;;;;;;;;;;5048290;28;20272;-75
2022/10/03 03:36:32;;;;;;;0.10;0.10;;;;;;;;;;5043085;28;20437;-75
2022/10/03 03:39:03;;;;;;;0.10;0.10;;;;;;;;;;5047313;28;20204;-76
2022/10/03 03:41:44;;;;;;;0.10;0.10;;;;;;;;;;5043909;28;20243;-75
2022/10/03 03:44:20;;;;;;;0.27;0.27;;;;;;;;;;5042275;28;20206;-76
2022/10/03 03:46:56;;;;;;;0.10;0.10;;;;;;;;;;5045612;28;20247;-74
2022/10/03 03:49:40;;;;;;;0.10;0.10;;;;;;;;;;5044119;28;20193;-76
2022/10/03 03:52:15;;;;;;;0.10;0.10;;;;;;;;;;5048128;28;20305;-75
2022/10/03 03:55:02;;;;;;;0.10;0.10;;;;;;;;;;5042594;28;20283;-75
2022/10/03 03:57:38;;;;;;;0.10;0.10;;;;;;;;;;5047726;28;20246;-75
2022/10/03 04:00:12;;;;;;;0.10;0.10;;;;;;;;;;5042422;28;20303;-75
2022/10/03 04:02:55;;;;;;;0.10;0.10;;;;;;;;;;5032446;28;20403;-75
2022/10/03 04:05:34;;;;;;;0.10;0.10;;;;;;;;;;5033765;28;20189;-75
2022/10/03 04:08:11;;;;;;;0.10;0.10;;;;;;;;;;5054616;28;20250;-76
2022/10/03 04:10:42;;;;;;;0.10;0.10;;;;;;;;;;5036433;28;20246;-76
2022/10/03 04:13:18;;;;;;;0.10;0.10;;;;;;;;;;5053345;28;20401;-77
2022/10/03 04:15:58;;;;;;;0.10;0.10;;;;;;;;;;5037461;28;20308;-72
2022/10/03 04:21:31;;;;;;;0.10;0.10;;;;;;;;;;5040880;28;20393;-72
2022/10/03 04:24:08;;;;;;;0.10;0.10;;;;;;;;;;5046381;28;20216;-73
2022/10/03 04:26:44;;;;;;;0.10;0.10;;;;;;;;;;5043488;28;20239;-73
2022/10/03 04:29:26;;;;;;;0.10;0.10;;;;;;;;;;5045059;28;20194;-73
2022/10/03 04:31:58;;;;;;;0.10;0.10;;;;;;;;;;5044776;28;20248;-73
2022/10/03 04:34:32;;;;;;;0.10;0.10;;;;;;;;;;5042990;28;20372;-72
2022/10/03 04:37:07;;;;;;;0.10;0.10;;;;;;;;;;5046571;28;20250;-72
2022/10/03 04:39:39;;;;;;;0.10;0.10;;;;;;;;;;5042036;28;20271;-72
2022/10/03 04:42:12;;;;;;;0.10;0.10;;;;;;;;;;5047870;28;20243;-72
2022/10/03 04:44:49;;;;;;;0.10;0.10;;;;;;;;;;5046025;28;20244;-73
2022/10/03 04:47:19;;;;;;;0.10;0.10;;;;;;;;;;5051567;28;20251;-73
2022/10/03 04:49:51;;;;;;;0.10;0.10;;;;;;;;;;5046331;28;20212;-72
2022/10/03 04:52:19;;;;;;;0.10;0.10;;;;;;;;;;5051229;28;20250;-71
2022/10/03 04:54:50;;;;;;;0.10;0.10;;;;;;;;;;5046077;28;20537;-72
2022/10/03 04:57:21;;;;;;;0.10;0.10;;;;;;;;;;5051249;28;20500;-73
2022/10/03 04:59:51;;;;;;;0.10;0.10;;;;;;;;;;5045905;28;20447;-69
2022/10/03 05:02:27;;;;;;;0.10;0.10;;;;;;;;;;5051224;28;20307;-68
2022/10/03 05:05:09;;;;;;;0.10;0.10;;;;;;;;;;5046058;28;20488;-68
2022/10/03 05:07:41;;;;;;;0.10;0.10;;;;;;;;;;5034474;28;20389;-70
2022/10/03 05:10:30;;;;;;;0.10;0.10;;;;;;;;;;5036289;28;20488;-71
2022/10/03 05:13:01;;;;;;;0.10;0.10;;;;;;;;;;5058173;28;20222;-69
2022/10/03 05:15:29;;;;;;;0.10;0.10;;;;;;;;;;5038617;28;20331;-68
2022/10/03 05:18:00;;;;;;;0.10;0.10;;;;;;;;;;5057680;28;20229;-68
2022/10/03 05:20:32;;;;;;;0.10;0.10;;;;;;;;;;5038052;28;20582;-68
2022/10/03 05:23:04;;;;;;;0.10;0.10;;;;;;;;;;5057646;28;20206;-69
2022/10/03 05:25:40;;;;;;;0.10;0.10;;;;;;;;;;5038606;28;20252;-69
2022/10/03 05:28:12;;;;;;;0.10;0.10;;;;;;;;;;5056307;28;20216;-68
2022/10/03 05:30:43;;;;;;;0.10;0.10;;;;;;;;;;5039512;28;20261;-68
2022/10/03 05:33:15;;;;;;;0.10;0.10;;;;;;;;;;5055602;28;20281;-69
2022/10/03 05:35:45;;;;;;;0.10;0.10;;;;;;;;;;5039583;28;20554;-68
2022/10/03 05:38:26;;;;;;;0.10;0.10;;;;;;;;;;5055527;28;20209;-68
2022/10/03 05:41:03;;;;;;;0.10;0.10;;;;;;;;;;5041003;28;20283;-69
2022/10/03 05:43:38;;;;;;;0.10;0.10;;;;;;;;;;5053182;28;20214;-69
2022/10/03 05:46:10;;;;;;;0.10;0.10;;;;;;;;;;5042302;28;20248;-68
2022/10/03 05:48:44;;;;;;;0.10;0.10;;;;;;;;;;5052271;28;20207;-69
2022/10/03 05:51:35;;;;;;;0.10;0.10;;;;;;;;;;5042965;28;20239;-69
2022/10/03 05:54:19;;;;;;;0.10;0.10;;;;;;;;;;5044559;28;20209;-69
2022/10/03 05:57:00;;;;;;;0.10;0.10;;;;;;;;;;5047171;28;20251;-68
2022/10/03 05:59:44;;;;;;;0.10;0.10;;;;;;;;;;5045698;28;20229;-68
2022/10/03 06:02:38;;;;;;;0.10;0.10;;;;;;;;;;5033022;28;20330;-68
2022/10/03 06:05:12;;;;;;;0.10;0.10;;;;;;;;;;5045197;28;20205;-69
2022/10/03 06:07:45;;;;;;;0.10;0.10;;;;;;;;;;5039302;28;20214;-69
2022/10/03 06:10:20;;;;;;;0.10;0.10;;;;;;;;;;5035431;28;20201;-69
2022/10/03 06:12:52;;;;;;;0.10;0.10;;;;;;;;;;5058093;28;20193;-68
2022/10/03 06:15:32;;;;;;;0.10;0.10;;;;;;;;;;5036033;28;20311;-73
2022/10/03 06:18:10;;;;;;;0.10;0.10;;;;;;;;;;5056396;28;20217;-73
2022/10/03 06:20:50;;;;;;;0.10;0.10;;;;;;;;;;5038659;28;20428;-72
2022/10/03 06:23:25;;;;;;;0.10;0.10;;;;;;;;;;5054033;28;20255;-68
2022/10/03 06:26:07;;;;;;;0.10;0.10;;;;;;;;;;5040220;28;20241;-68
2022/10/03 06:28:54;;;;;;;0.10;0.10;;;;;;;;;;5051863;28;20206;-69
2022/10/03 06:31:41;;;;;;;0.10;0.10;;;;;;;;;;5043598;28;20351;-68
2022/10/03 06:34:21;;;;;;;0.10;0.10;;;;;;;;;;5047397;28;20207;-69
2022/10/03 06:37:14;;;;;;;0.10;0.10;;;;;;;;;;5047097;28;20239;-69
2022/10/03 06:40:05;;;;;;;0.10;0.10;;;;;;;;;;5019681;28;20210;-68
2022/10/03 06:42:47;;;;;;;0.20;0.20;;;;;;;;;;5032646;28;20212;-69
2022/10/03 06:45:26;;;;;;;0.10;0.10;;;;;;;;;;5033802;28;20220;-69
2022/10/03 06:48:03;;;;;;;0.10;0.10;;;;;;;;;;5056229;28;20197;-69
2022/10/03 06:50:40;;;;;;;0.10;0.10;;;;;;;;;;5037115;28;20482;-76
2022/10/03 06:53:13;;;;;;;0.10;0.10;;;;;;;;;;5054986;28;20364;-76
2022/10/03 06:55:47;;;;;;;0.10;0.10;;;;;;;;;;5038169;28;20244;-75
2022/10/03 06:58:27;;;;;;;0.10;0.10;;;;;;;;;;5053827;28;20411;-75
2022/10/03 07:00:57;;;;;;;0.10;0.10;;;;;;;;;;5039472;28;20273;-76
2022/10/03 07:03:35;;;;;;;0.10;0.10;;;;;;;;;;5052416;28;20301;-76
2022/10/03 07:06:17;;;;;;;0.10;0.10;;;;;;;;;;5040364;28;20579;-76
2022/10/03 07:09:02;;;;;;;0.10;0.10;;;;;;;;;;5049268;28;20209;-76
2022/10/03 07:11:49;;;;;;;0.10;0.10;;;;;;;;;;5043911;28;20423;-75
2022/10/03 07:14:27;;;;;;;0.10;0.10;;;;;;;;;;5017919;28;20217;-75
2022/10/03 07:17:03;;;;;;;0.10;0.10;;;;;;;;;;5046759;28;20240;-75
2022/10/03 07:19:51;;;;;;;0.10;0.10;;;;;;;;;;5043738;28;20206;-75
2022/10/03 07:22:27;;;;;;;0.10;0.10;;;;;;;;;;5046840;28;20236;-76
2022/10/03 07:25:08;;;;;;;0.10;0.10;;;;;;;;;;5043752;28;20359;-75
2022/10/03 07:27:44;;;;;;;0.10;0.10;;;;;;;;;;5010675;28;20278;-68
2022/10/03 07:30:14;;;;;;;0.00;0.00;;;;;;;;;;5034023;28;20284;-68
2022/10/03 07:32:57;;;;;;;0.10;0.10;;;;;;;;;;5057103;28;20193;-70
2022/10/03 07:38:58;;;;;;;0.10;0.10;;;;;;;;;;5100073;27;20969;-69
2022/10/03 07:41:40;;;;;;;0.10;0.10;;;;;;;;;;5063516;28;20239;-68
2022/10/03 07:44:21;;;;;;;0.10;0.10;;;;;;;;;;5062681;28;20441;-69
2022/10/03 07:47:08;;;;;;;0.10;0.10;;;;;;;;;;5062334;28;20567;-69
2022/10/03 07:49:52;;;;;;;0.10;0.10;;;;;;;;;;5059343;28;20205;-69
2022/10/03 07:52:37;;;;;;;0.10;0.10;;;;;;;;;;5064297;28;20466;-70
2022/10/03 07:55:19;;;;;;;0.10;0.10;;;;;;;;;;5059301;28;20281;-70
2022/10/03 07:58:03;;;;;;;0.10;0.10;;;;;;;;;;5039375;28;20219;-69
2022/10/03 08:00:36;;;;;;;0.10;0.10;;;;;;;;;;5002495;28;20341;-68
2022/10/03 08:03:29;;;;;;;0.10;0.10;;;;;;;;;;5031114;28;20215;-68
2022/10/03 08:06:06;;;;;;;0.10;0.10;;;;;;;;;;5016063;28;20242;-68
2022/10/03 08:08:53;;;;;;;0.10;0.10;;;;;;;;;;5027257;28;20194;-69
2022/10/03 08:11:31;;;;;;;0.10;0.10;;;;;;;;;;5015363;28;20248;-69
2022/10/03 08:14:01;;;;;;;0.10;0.10;;;;;;;;;;5023751;28;20199;-69
2022/10/03 08:16:48;;;;;;;0.10;0.10;;;;;;;;;;5019685;28;20242;-69
2022/10/03 08:19:24;;;;;;;0.10;0.10;;;;;;;;;;5021346;28;20236;-69
2022/10/03 08:21:56;;;;;;;0.00;0.00;;;;;;;;;;5022688;28;20249;-68
2022/10/03 08:24:43;;;;;;;0.10;0.10;;;;;;;;;;5020554;28;20205;-69
2022/10/03 08:27:22;;;;;;;0.10;0.10;;;;;;;;;;5020817;28;20509;-67
2022/10/03 08:30:04;;;;;;;0.10;0.10;;;;;;;;;;5019053;28;20202;-69
2022/10/03 08:32:42;;;;;;;0.10;0.10;;;;;;;;;;5006275;28;20403;-69
2022/10/03 08:35:23;;;;;;;0.10;0.10;;;;;;;;;;5009740;28;20202;-68
2022/10/03 08:38:11;;;;;;;0.10;0.10;;;;;;;;;;5051306;28;20235;-68
2022/10/03 08:41:07;;;;;;;0.10;0.10;;;;;;;;;;5028767;28;20249;-69
2022/10/03 08:43:45;;;;;;;0.10;0.10;;;;;;;;;;5046307;28;20204;-68
2022/10/03 08:46:21;;;;;;;0.10;0.10;;;;;;;;;;5036842;28;20489;-69
2022/10/03 08:48:54;;;;;;;0.10;0.10;;;;;;;;;;5036582;28;20266;-68
2022/10/03 08:51:46;;;;;;;0.10;0.10;;;;;;;;;;5024423;28;20244;-69
2022/10/03 08:54:31;;;;;;;0.10;0.10;;;;;;;;;;5027847;28;20438;-68
2022/10/03 08:57:08;;;;;;;0.10;0.10;;;;;;;;;;5028760;28;20428;-73
2022/10/03 08:59:49;;;;;;;0.10;0.10;;;;;;;;;;5025191;28;20226;-73
2022/10/03 09:02:34;;;;;;;0.10;0.10;;;;;;;;;;5030126;28;20243;-73
2022/10/03 09:05:17;;;;;;;0.10;0.10;;;;;;;;;;5024928;28;20291;-73
2022/10/03 09:08:06;;;;;;;0.10;0.10;;;;;;;;;;5024408;28;20189;-73
2022/10/03 09:10:37;;;;;;;0.10;0.10;;;;;;;;;;5014692;28;20243;-73
2022/10/03 09:13:22;;;;;;;0.03;0.03;;;;;;;;;;5016508;28;20205;-73
2022/10/03 09:16:07;;;;;;;0.10;0.10;;;;;;;;;;5000559;28;20241;-72
2022/10/03 09:18:47;;;;;;;0.10;0.10;;;;;;;;;;5012615;28;20230;-73
2022/10/03 09:21:34;;;;;;;0.10;0.10;;;;;;;;;;5003626;28;20568;-73
2022/10/03 09:24:21;;;;;;;0.10;0.10;;;;;;;;;;5003755;28;20426;-73
2022/10/03 09:27:11;;;;;;;0.10;0.10;;;;;;;;;;5004274;28;20534;-72
2022/10/03 09:29:56;;;;;;;0.10;0.10;;;;;;;;;;5005019;28;20314;-72
2022/10/03 09:32:33;;;;;;;0.10;0.10;;;;;;;;;;5010064;28;20247;-73
2022/10/03 09:35:15;;;;;;;0.10;0.10;;;;;;;;;;5005009;28;20199;-73
2022/10/03 09:37:58;;;;;;;0.10;0.10;;;;;;;;;;5004290;28;20405;-73
2022/10/03 09:40:41;;;;;;;0.10;0.10;;;;;;;;;;4999906;28;20195;-73
2022/10/03 09:43:16;;;;;;;0.10;0.10;;;;;;;;;;5035095;28;20216;-73
2022/10/03 09:46:00;;;;;;;0.10;0.10;;;;;;;;;;5019108;28;20246;-73
2022/10/03 09:48:37;;;;;;;0.10;0.10;;;;;;;;;;5032633;28;20385;-72
2022/10/03 09:51:20;;;;;;;0.10;0.10;;;;;;;;;;5021681;28;20319;-72
2022/10/03 09:54:09;;;;;;;0.10;0.10;;;;;;;;;;5030154;28;20475;-73
2022/10/03 09:57:02;;;;;;;0.10;0.10;;;;;;;;;;5025534;28;20390;-73
2022/10/03 09:59:45;;;;;;;0.10;0.10;;;;;;;;;;4999430;28;20249;-72
2022/10/03 10:02:27;;;;;;;0.10;0.10;;;;;;;;;;5029005;28;20242;-73
2022/10/03 10:05:02;;;;;;;0.10;0.10;;;;;;;;;;5024001;28;20204;-72
2022/10/03 10:07:55;;;;;;;0.10;0.10;;;;;;;;;;5029153;28;20237;-73
2022/10/03 10:10:44;;;;;;;0.10;0.10;;;;;;;;;;5015511;28;20253;-73
2022/10/03 10:13:17;;;;;;;0.10;0.10;;;;;;;;;;5034128;28;20210;-73
2022/10/03 10:15:58;;;;;;;0.10;0.10;;;;;;;;;;5018258;28;20241;-72
2022/10/03 10:18:33;;;;;;;0.10;0.10;;;;;;;;;;5032144;28;20226;-76
2022/10/03 10:21:19;;;;;;;0.10;0.10;;;;;;;;;;5020062;28;20429;-76
2022/10/03 10:23:50;;;;;;;0.10;0.10;;;;;;;;;;5029577;28;20206;-75
2022/10/03 10:26:47;;;;;;;0.10;0.10;;;;;;;;;;5022257;28;20383;-76
2022/10/03 10:29:43;;;;;;;0.10;0.10;;;;;;;;;;5025482;28;20196;-76
2022/10/03 10:32:24;;;;;;;0.10;0.10;;;;;;;;;;4969608;28;20290;-76
2022/10/03 10:35:16;;;;;;;0.10;0.10;;;;;;;;;;5000417;28;20230;-76
2022/10/03 10:38:10;;;;;;;0.10;0.10;;;;;;;;;;5022689;28;20541;-74
2022/10/03 10:40:57;;;;;;;0.10;0.10;;;;;;;;;;4977871;28;20450;-74
2022/10/03 10:43:39;;;;;;;0.10;0.10;;;;;;;;;;5012248;28;20208;-75
2022/10/03 10:46:21;;;;;;;0.20;0.20;;;;;;;;;;5001250;28;20276;-75
2022/10/03 10:49:17;;;;;;;0.10;0.10;;;;;;;;;;4981578;28;20212;-76
2022/10/03 10:51:54;;;;;;;0.10;0.10;;;;;;;;;;5005497;28;20305;-76
2022/10/03 10:54:35;;;;;;;0.10;0.10;;;;;;;;;;5004648;28;20196;-75
2022/10/03 10:57:22;;;;;;;0.10;0.10;;;;;;;;;;5006088;28;20490;-76
2022/10/03 11:00:03;;;;;;;0.10;0.10;;;;;;;;;;4998391;28;20450;-75
2022/10/03 11:02:49;;;;;;;0.03;0.03;;;;;;;;;;5008229;28;20250;-75
2022/10/03 11:05:37;;;;;;;0.10;0.10;;;;;;;;;;4994616;28;20262;-75
2022/10/03 11:08:23;;;;;;;0.10;0.10;;;;;;;;;;5014175;28;20271;-76
2022/10/03 11:10:59;;;;;;;0.10;0.10;;;;;;;;;;4998261;28;20312;-75
2022/10/03 11:13:49;;;;;;;0.10;0.10;;;;;;;;;;5011065;28;20264;-75
2022/10/03 11:16:34;;;;;;;0.10;0.10;;;;;;;;;;5001876;28;20553;-75
2022/10/03 11:19:15;;;;;;;0.10;0.10;;;;;;;;;;5006447;28;20239;-76
2022/10/03 11:22:03;;;;;;;0.10;0.10;;;;;;;;;;5005202;28;20326;-76
2022/10/03 11:24:48;;;;;;;0.10;0.10;;;;;;;;;;5003292;28;20196;-76
2022/10/03 11:27:35;;;;;;;0.10;0.10;;;;;;;;;;5008056;28;20244;-75
2022/10/03 11:30:18;;;;;;;0.07;0.07;;;;;;;;;;4985924;28;20422;-75
2022/10/03 11:33:04;;;;;;;0.10;0.10;;;;;;;;;;5002907;28;20205;-76
2022/10/03 11:35:45;;;;;;;0.10;0.10;;;;;;;;;;4996438;28;20258;-74
2022/10/03 11:38:14;;;;;;;0.00;0.00;;;;;;;;;;5012307;28;20236;-75
2022/10/03 11:40:47;;;;;;;0.10;0.10;;;;;;;;;;4997377;28;20310;-76
2022/10/03 11:43:29;;;;;;;0.10;0.10;;;;;;;;;;5012066;28;20436;-76
2022/10/03 11:46:05;;;;;;;0.10;0.10;;;;;;;;;;4999249;28;20302;-76
2022/10/03 11:48:38;;;;;;;0.10;0.10;;;;;;;;;;5010391;28;20364;-76
2022/10/03 11:51:07;;;;;;;0.10;0.10;;;;;;;;;;5000123;28;20249;-76
2022/10/03 11:53:38;;;;;;;0.10;0.10;;;;;;;;;;5009892;28;20283;-75
2022/10/03 11:56:13;;;;;;;0.10;0.10;;;;;;;;;;5000231;28;20251;-69
2022/10/03 11:58:45;;;;;;;0.10;0.10;;;;;;;;;;5008954;28;20420;-68
2022/10/03 12:01:27;;;;;;;0.10;0.10;;;;;;;;;;5000882;28;20294;-67
2022/10/03 12:03:59;;;;;;;0.10;0.10;;;;;;;;;;5004866;28;20570;-68
2022/10/03 12:09:26;;;;;;;0.10;0.10;;;;;;;;;;5003222;28;20249;-68
2022/10/03 12:11:56;;;;;;;0.10;0.10;;;;;;;;;;5006230;28;20440;-68
2022/10/03 12:14:28;;;;;;;0.10;0.10;;;;;;;;;;5003289;28;20206;-68
2022/10/03 12:17:02;;;;;;;0.10;0.10;;;;;;;;;;5006341;28;20518;-69
2022/10/03 12:19:33;;;;;;;0.10;0.10;;;;;;;;;;5002480;28;20282;-67
2022/10/03 12:22:06;;;;;;;0.10;0.10;;;;;;;;;;5007025;28;20246;-68
2022/10/03 12:24:34;;;;;;;0.07;0.07;;;;;;;;;;5004928;28;20204;-68
2022/10/03 12:27:04;;;;;;;0.10;0.10;;;;;;;;;;5010999;28;20558;-68
2022/10/03 12:29:33;;;;;;;0.10;0.10;;;;;;;;;;5006118;28;20412;-68
2022/10/03 12:32:04;;;;;;;0.20;0.20;;;;;;;;;;5010334;28;20249;-70
2022/10/03 12:34:39;;;;;;;0.10;0.10;;;;;;;;;;5005977;28;20202;-70
2022/10/03 12:37:19;;;;;;;0.10;0.10;;;;;;;;;;5011035;28;20245;-68
2022/10/03 12:39:48;;;;;;;0.00;0.00;;;;;;;;;;5005834;28;20288;-68
2022/10/03 12:42:32;;;;;;;0.10;0.10;;;;;;;;;;5011317;28;20247;-66
2022/10/03 12:45:00;;;;;;;0.10;0.10;;;;;;;;;;5005166;28;20277;-66
2022/10/03 12:47:30;;;;;;;0.00;0.00;;;;;;;;;;5011314;28;20246;-66
2022/10/03 12:50:13;;;;;;;0.10;0.10;;;;;;;;;;5005847;28;20377;-67
2022/10/03 12:52:43;;;;;;;0.10;0.10;;;;;;;;;;5026216;28;20245;-66
2022/10/03 12:55:19;;;;;;;0.10;0.10;;;;;;;;;;5016058;28;20245;-70
2022/10/03 12:57:47;;;;;;;0.10;0.10;;;;;;;;;;5038648;28;20213;-68
2022/10/03 13:00:19;;;;;;;0.10;0.10;;;;;;;;;;5016365;28;20228;-69
2022/10/03 13:02:53;;;;;;;0.10;0.10;;;;;;;;;;5038726;28;20455;-68
2022/10/03 13:05:33;;;;;;;0.10;0.10;;;;;;;;;;5016768;28;20206;-68
2022/10/03 13:08:02;;;;;;;0.10;0.10;;;;;;;;;;5037103;28;20396;-68
2022/10/03 13:10:36;;;;;;;0.07;0.07;;;;;;;;;;5017811;28;20565;-70
2022/10/03 13:13:06;;;;;;;0.10;0.10;;;;;;;;;;5036276;28;20318;-70
2022/10/03 13:15:44;;;;;;;0.10;0.10;;;;;;;;;;5018240;28;20242;-71
2022/10/03 13:18:29;;;;;;;0.10;0.10;;;;;;;;;;5035003;28;20231;-70
2022/10/03 13:21:01;;;;;;;0.10;0.10;;;;;;;;;;5020686;28;20267;-71
2022/10/03 13:23:33;;;;;;;0.10;0.10;;;;;;;;;;5033067;28;20397;-70
2022/10/03 13:26:06;;;;;;;0.10;0.10;;;;;;;;;;5021355;28;20244;-70
2022/10/03 13:28:35;;;;;;;0.10;0.10;;;;;;;;;;5031822;28;20193;-71
2022/10/03 13:31:03;;;;;;;0.10;0.10;;;;;;;;;;5021350;28;20440;-70
2022/10/03 13:33:31;;;;;;;0.10;0.10;;;;;;;;;;5031942;28;20201;-71
2022/10/03 13:36:02;;;;;;;0.10;0.10;;;;;;;;;;5020726;28;20242;-70
2022/10/03 13:38:44;;;;;;;0.10;0.10;;;;;;;;;;5032597;28;20217;-70
2022/10/03 13:41:15;;;;;;;0.10;0.10;;;;;;;;;;5022596;28;20243;-70
2022/10/03 13:43:45;;;;;;;0.10;0.10;;;;;;;;;;5031009;28;20200;-70
2022/10/03 13:46:13;;;;;;;0.00;0.00;;;;;;;;;;5022283;28;20423;-70
2022/10/03 13:48:40;;;;;;;0.10;0.10;;;;;;;;;;5030690;28;20211;-70
2022/10/03 13:51:14;;;;;;;0.10;0.10;;;;;;;;;;5021793;28;20563;-70
2022/10/03 13:53:50;;;;;;;0.10;0.10;;;;;;;;;;5030501;28;20271;-70
2022/10/03 13:56:23;;;;;;;0.10;0.10;;;;;;;;;;5023088;28;20614;-70
2022/10/03 13:58:54;;;;;;;0.10;0.10;;;;;;;;;;5028447;28;20279;-70
2022/10/03 14:01:37;;;;;;;0.10;0.10;;;;;;;;;;5023270;28;20306;-70
2022/10/03 14:04:16;;;;;;;0.10;0.10;;;;;;;;;;5025482;28;20441;-71
2022/10/03 14:06:49;;;;;;;0.10;0.10;;;;;;;;;;5026121;28;20251;-71
2022/10/03 14:09:31;;;;;;;0.00;0.00;;;;;;;;;;5026084;28;20190;-71
2022/10/03 14:12:00;;;;;;;0.10;0.10;;;;;;;;;;5027464;28;20249;-73
2022/10/03 14:14:33;;;;;;;0.10;0.10;;;;;;;;;;5025016;28;20427;-74
2022/10/03 14:17:03;;;;;;;0.10;0.10;;;;;;;;;;5028185;28;20240;-72
2022/10/03 14:19:34;;;;;;;0.10;0.10;;;;;;;;;;5023827;28;20229;-74
2022/10/03 14:22:11;;;;;;;0.10;0.10;;;;;;;;;;5028126;28;20266;-74
2022/10/03 14:24:42;;;;;;;0.10;0.10;;;;;;;;;;5023935;28;20235;-74
2022/10/03 14:27:13;;;;;;;0.10;0.10;;;;;;;;;;5028624;28;20311;-68
2022/10/03 14:29:45;;;;;;;0.10;0.10;;;;;;;;;;5023697;28;20202;-67
2022/10/03 14:32:15;;;;;;;0.10;0.10;;;;;;;;;;5028608;28;20242;-67
2022/10/03 14:34:49;;;;;;;0.10;0.10;;;;;;;;;;5023342;28;20200;-67
2022/10/03 14:37:23;;;;;;;0.00;0.00;;;;;;;;;;5028114;28;20242;-68
2022/10/03 14:39:55;;;;;;;0.10;0.10;;;;;;;;;;5023582;28;20542;-68
2022/10/03 14:42:29;;;;;;;0.00;0.00;;;;;;;;;;5028682;28;20400;-68
2022/10/03 14:44:57;;;;;;;0.10;0.10;;;;;;;;;;5023645;28;20212;-67
2022/10/03 14:47:23;;;;;;;0.10;0.10;;;;;;;;;;5027994;28;20487;-67
2022/10/03 14:49:52;;;;;;;0.10;0.10;;;;;;;;;;5023331;28;20204;-67
2022/10/03 14:52:24;;;;;;;0.10;0.10;;;;;;;;;;5028077;28;20243;-67
2022/10/03 14:54:51;;;;;;;0.10;0.10;;;;;;;;;;5023334;28;20220;-67
2022/10/03 14:57:23;;;;;;;0.10;0.10;;;;;;;;;;5028031;28;20406;-68
2022/10/03 14:59:52;;;;;;;0.10;0.10;;;;;;;;;;5023105;28;20232;-67
2022/10/03 15:02:25;;;;;;;0.10;0.10;;;;;;;;;;5028027;28;20264;-67
2022/10/03 15:04:53;;;;;;;0.00;0.00;;;;;;;;;;5023104;28;20265;-68
2022/10/03 15:07:32;;;;;;;0.03;0.03;;;;;;;;;;5028162;28;20559;-74
2022/10/03 15:10:01;;;;;;;0.10;0.10;;;;;;;;;;5022969;28;20192;-74
2022/10/03 15:12:30;;;;;;;0.10;0.10;;;;;;;;;;5027992;28;20248;-73
2022/10/03 15:15:00;;;;;;;0.10;0.10;;;;;;;;;;5023044;28;20451;-73
2022/10/03 15:17:28;;;;;;;0.10;0.10;;;;;;;;;;5027631;28;20247;-72
2022/10/03 15:19:55;;;;;;;0.10;0.10;;;;;;;;;;5022681;28;20484;-74
2022/10/03 15:22:28;;;;;;;0.00;0.00;;;;;;;;;;5027890;28;20316;-74
2022/10/03 15:24:56;;;;;;;0.10;0.10;;;;;;;;;;5022573;28;20194;-74
2022/10/03 15:27:24;;;;;;;0.10;0.10;;;;;;;;;;5027556;28;20258;-73
2022/10/03 15:29:54;;;;;;;0.00;0.00;;;;;;;;;;5022723;28;20273;-72
2022/10/03 15:32:22;;;;;;;0.10;0.10;;;;;;;;;;5027680;28;20341;-71
2022/10/03 15:34:52;;;;;;;0.03;0.03;;;;;;;;;;5022811;28;20517;-73
2022/10/03 15:37:21;;;;;;;0.10;0.10;;;;;;;;;;5027308;28;20240;-72
2022/10/03 15:39:51;;;;;;;0.10;0.10;;;;;;;;;;5022573;28;20540;-73
2022/10/03 15:42:21;;;;;;;0.00;0.00;;;;;;;;;;5027229;28;20241;-73
2022/10/03 15:44:52;;;;;;;0.10;0.10;;;;;;;;;;5022617;28;20196;-73
2022/10/03 15:47:19;;;;;;;0.10;0.10;;;;;;;;;;5027329;28;20240;-73
2022/10/03 15:49:49;;;;;;;0.00;0.00;;;;;;;;;;5022432;28;20275;-73
2022/10/03 15:52:17;;;;;;;0.10;0.10;;;;;;;;;;5027218;28;20246;-74